Terminal Aerodrome Forecast
Issued by NWS

Home | Current Version | Previous Version | Text Only | Print | Product List | Glossary On
Versions: 1 2 3 4 5 6 7 8 9 10 11 12 13 14 15
000
FTUS42 KGSP 292320
TAFGMU
TAF
KGMU 292320Z 3000/3024 16007KT P6SM SCT050 BKN170
     FM300300 12003KT P6SM SCT040 BKN170
     FM301800 10005KT P6SM SCT040 OVC060 PROB30 3018/3022 4SM TSRA
      OVC040CB
     FM302200 10005KT P6SM BKN040=

USA.gov is the U.S. government's official web portal to all federal, state and local government web resources and services.